sensor_id;sensor_type;location;lat;lon;timestamp;P1;durP1;ratioP1;P2;durP2;ratioP2
7213;SDS011;3648;50.614;13.830;2023-07-29T00:00:44;2.10;;;1.30;;
7213;SDS011;3648;50.614;13.830;2023-07-29T00:03:11;1.30;;;1.20;;
7213;SDS011;3648;50.614;13.830;2023-07-29T00:05:38;2.10;;;1.47;;
7213;SDS011;3648;50.614;13.830;2023-07-29T00:08:06;1.93;;;1.23;;
7213;SDS011;3648;50.614;13.830;2023-07-29T00:10:35;1.70;;;1.40;;
7213;SDS011;3648;50.614;13.830;2023-07-29T00:13:04;1.40;;;1.30;;
7213;SDS011;3648;50.614;13.830;2023-07-29T00:15:32;1.47;;;1.37;;
7213;SDS011;3648;50.614;13.830;2023-07-29T00:17:59;1.97;;;1.40;;
7213;SDS011;3648;50.614;13.830;2023-07-29T00:20:26;1.40;;;1.30;;
7213;SDS011;3648;50.614;13.830;2023-07-29T00:22:53;1.40;;;1.30;;
7213;SDS011;3648;50.614;13.830;2023-07-29T00:25:20;1.53;;;1.43;;
7213;SDS011;3648;50.614;13.830;2023-07-29T00:27:47;1.40;;;1.20;;
7213;SDS011;3648;50.614;13.830;2023-07-29T00:30:16;1.37;;;1.27;;
7213;SDS011;3648;50.614;13.830;2023-07-29T00:32:43;3.57;;;1.40;;
7213;SDS011;3648;50.614;13.830;2023-07-29T00:35:09;1.47;;;1.37;;
7213;SDS011;3648;50.614;13.830;2023-07-29T00:37:36;2.30;;;1.40;;
7213;SDS011;3648;50.614;13.830;2023-07-29T00:40:04;2.70;;;1.50;;
7213;SDS011;3648;50.614;13.830;2023-07-29T00:42:38;1.50;;;1.40;;
7213;SDS011;3648;50.614;13.830;2023-07-29T00:45:08;1.50;;;1.40;;
7213;SDS011;3648;50.614;13.830;2023-07-29T00:47:36;1.43;;;1.33;;
7213;SDS011;3648;50.614;13.830;2023-07-29T00:50:04;2.53;;;1.63;;
7213;SDS011;3648;50.614;13.830;2023-07-29T00:52:32;1.53;;;1.43;;
7213;SDS011;3648;50.614;13.830;2023-07-29T00:54:59;1.40;;;1.30;;
7213;SDS011;3648;50.614;13.830;2023-07-29T00:57:26;1.60;;;1.40;;
7213;SDS011;3648;50.614;13.830;2023-07-29T00:59:56;1.57;;;1.40;;
7213;SDS011;3648;50.614;13.830;2023-07-29T01:02:23;1.77;;;1.50;;
7213;SDS011;3648;50.614;13.830;2023-07-29T01:04:53;1.67;;;1.50;;
7213;SDS011;3648;50.614;13.830;2023-07-29T01:07:21;2.10;;;1.73;;
7213;SDS011;3648;50.614;13.830;2023-07-29T01:09:54;1.77;;;1.47;;
7213;SDS011;3648;50.614;13.830;2023-07-29T01:12:27;1.60;;;1.50;;
7213;SDS011;3648;50.614;13.830;2023-07-29T01:15:01;1.43;;;1.33;;
7213;SDS011;3648;50.614;13.830;2023-07-29T01:17:36;2.83;;;1.60;;
7213;SDS011;3648;50.614;13.830;2023-07-29T01:20:11;1.60;;;1.37;;
7213;SDS011;3648;50.614;13.830;2023-07-29T01:22:41;2.10;;;1.90;;
7213;SDS011;3648;50.614;13.830;2023-07-29T01:25:10;1.47;;;1.37;;
7213;SDS011;3648;50.614;13.830;2023-07-29T01:27:37;2.17;;;1.50;;
7213;SDS011;3648;50.614;13.830;2023-07-29T01:30:05;1.97;;;1.77;;
7213;SDS011;3648;50.614;13.830;2023-07-29T01:32:35;1.40;;;1.30;;
7213;SDS011;3648;50.614;13.830;2023-07-29T01:35:13;1.57;;;1.47;;
7213;SDS011;3648;50.614;13.830;2023-07-29T01:37:47;1.80;;;1.70;;
7213;SDS011;3648;50.614;13.830;2023-07-29T01:40:19;1.83;;;1.73;;
7213;SDS011;3648;50.614;13.830;2023-07-29T01:42:48;2.20;;;1.80;;
7213;SDS011;3648;50.614;13.830;2023-07-29T01:45:15;2.00;;;1.80;;
7213;SDS011;3648;50.614;13.830;2023-07-29T01:47:42;1.60;;;1.50;;
7213;SDS011;3648;50.614;13.830;2023-07-29T01:50:09;1.50;;;1.40;;
7213;SDS011;3648;50.614;13.830;2023-07-29T01:52:36;1.63;;;1.50;;
7213;SDS011;3648;50.614;13.830;2023-07-29T01:55:04;1.67;;;1.57;;
7213;SDS011;3648;50.614;13.830;2023-07-29T01:57:32;3.83;;;1.83;;
7213;SDS011;3648;50.614;13.830;2023-07-29T01:59:59;1.50;;;1.30;;
7213;SDS011;3648;50.614;13.830;2023-07-29T02:02:27;1.60;;;1.50;;
7213;SDS011;3648;50.614;13.830;2023-07-29T02:04:54;1.50;;;1.40;;
7213;SDS011;3648;50.614;13.830;2023-07-29T02:07:21;3.37;;;1.57;;
7213;SDS011;3648;50.614;13.830;2023-07-29T02:09:48;1.57;;;1.47;;
7213;SDS011;3648;50.614;13.830;2023-07-29T02:12:14;2.63;;;1.60;;
7213;SDS011;3648;50.614;13.830;2023-07-29T02:14:43;1.77;;;1.33;;
7213;SDS011;3648;50.614;13.830;2023-07-29T02:17:10;1.80;;;1.57;;
7213;SDS011;3648;50.614;13.830;2023-07-29T02:19:36;1.43;;;1.33;;
7213;SDS011;3648;50.614;13.830;2023-07-29T02:22:03;1.87;;;1.20;;
7213;SDS011;3648;50.614;13.830;2023-07-29T02:24:31;2.57;;;1.70;;
7213;SDS011;3648;50.614;13.830;2023-07-29T02:26:58;2.90;;;1.40;;
7213;SDS011;3648;50.614;13.830;2023-07-29T02:29:24;1.80;;;1.50;;
7213;SDS011;3648;50.614;13.830;2023-07-29T02:31:53;2.27;;;1.57;;
7213;SDS011;3648;50.614;13.830;2023-07-29T02:34:20;1.77;;;1.67;;
7213;SDS011;3648;50.614;13.830;2023-07-29T02:36:46;2.47;;;1.60;;
7213;SDS011;3648;50.614;13.830;2023-07-29T02:39:14;2.00;;;1.80;;
7213;SDS011;3648;50.614;13.830;2023-07-29T02:41:40;3.10;;;1.60;;
7213;SDS011;3648;50.614;13.830;2023-07-29T02:44:07;1.63;;;1.53;;
7213;SDS011;3648;50.614;13.830;2023-07-29T02:46:34;1.40;;;1.30;;
7213;SDS011;3648;50.614;13.830;2023-07-29T02:49:03;2.23;;;2.03;;
7213;SDS011;3648;50.614;13.830;2023-07-29T02:51:30;1.70;;;1.60;;
7213;SDS011;3648;50.614;13.830;2023-07-29T02:53:57;2.03;;;1.43;;
7213;SDS011;3648;50.614;13.830;2023-07-29T02:56:24;1.97;;;1.67;;
7213;SDS011;3648;50.614;13.830;2023-07-29T02:58:51;5.07;;;1.90;;
7213;SDS011;3648;50.614;13.830;2023-07-29T03:01:18;1.80;;;1.70;;
7213;SDS011;3648;50.614;13.830;2023-07-29T03:03:45;2.23;;;1.70;;
7213;SDS011;3648;50.614;13.830;2023-07-29T03:06:13;1.60;;;1.50;;
7213;SDS011;3648;50.614;13.830;2023-07-29T03:08:41;1.70;;;1.60;;
7213;SDS011;3648;50.614;13.830;2023-07-29T03:11:09;2.73;;;2.00;;
7213;SDS011;3648;50.614;13.830;2023-07-29T03:13:37;1.90;;;1.63;;
7213;SDS011;3648;50.614;13.830;2023-07-29T03:16:04;2.70;;;2.10;;
7213;SDS011;3648;50.614;13.830;2023-07-29T03:18:32;2.03;;;1.80;;
7213;SDS011;3648;50.614;13.830;2023-07-29T03:20:59;3.63;;;2.17;;
7213;SDS011;3648;50.614;13.830;2023-07-29T03:23:27;2.43;;;2.00;;
7213;SDS011;3648;50.614;13.830;2023-07-29T03:25:54;3.23;;;2.70;;
7213;SDS011;3648;50.614;13.830;2023-07-29T03:28:23;5.70;;;2.27;;
7213;SDS011;3648;50.614;13.830;2023-07-29T03:30:51;2.97;;;2.07;;
7213;SDS011;3648;50.614;13.830;2023-07-29T03:33:18;3.20;;;2.43;;
7213;SDS011;3648;50.614;13.830;2023-07-29T03:35:45;3.97;;;2.77;;
7213;SDS011;3648;50.614;13.830;2023-07-29T03:38:12;3.90;;;2.63;;
7213;SDS011;3648;50.614;13.830;2023-07-29T03:40:41;3.07;;;2.37;;
7213;SDS011;3648;50.614;13.830;2023-07-29T03:43:08;2.67;;;2.27;;
7213;SDS011;3648;50.614;13.830;2023-07-29T03:45:36;2.97;;;2.40;;
7213;SDS011;3648;50.614;13.830;2023-07-29T03:48:03;2.70;;;2.50;;
7213;SDS011;3648;50.614;13.830;2023-07-29T03:50:32;3.87;;;2.43;;
7213;SDS011;3648;50.614;13.830;2023-07-29T03:53:00;2.57;;;2.37;;
7213;SDS011;3648;50.614;13.830;2023-07-29T03:55:27;4.17;;;2.60;;
7213;SDS011;3648;50.614;13.830;2023-07-29T03:57:56;3.13;;;2.37;;
7213;SDS011;3648;50.614;13.830;2023-07-29T04:00:23;4.97;;;2.90;;
7213;SDS011;3648;50.614;13.830;2023-07-29T04:02:50;2.83;;;2.37;;
7213;SDS011;3648;50.614;13.830;2023-07-29T04:05:17;4.57;;;2.90;;
7213;SDS011;3648;50.614;13.830;2023-07-29T04:07:44;3.07;;;2.80;;
7213;SDS011;3648;50.614;13.830;2023-07-29T04:10:11;2.77;;;2.27;;
7213;SDS011;3648;50.614;13.830;2023-07-29T04:12:38;3.10;;;2.30;;
7213;SDS011;3648;50.614;13.830;2023-07-29T04:15:07;5.23;;;2.80;;
7213;SDS011;3648;50.614;13.830;2023-07-29T04:17:34;4.97;;;2.77;;
7213;SDS011;3648;50.614;13.830;2023-07-29T04:20:01;3.47;;;2.10;;
7213;SDS011;3648;50.614;13.830;2023-07-29T04:22:29;5.40;;;2.70;;
7213;SDS011;3648;50.614;13.830;2023-07-29T04:24:56;3.83;;;2.47;;
7213;SDS011;3648;50.614;13.830;2023-07-29T04:27:23;3.17;;;2.47;;
7213;SDS011;3648;50.614;13.830;2023-07-29T04:29:50;2.47;;;2.27;;
7213;SDS011;3648;50.614;13.830;2023-07-29T04:32:18;3.60;;;2.33;;
7213;SDS011;3648;50.614;13.830;2023-07-29T04:34:45;4.07;;;2.60;;
7213;SDS011;3648;50.614;13.830;2023-07-29T04:37:12;3.27;;;2.37;;
7213;SDS011;3648;50.614;13.830;2023-07-29T04:39:39;4.20;;;2.13;;
7213;SDS011;3648;50.614;13.830;2023-07-29T04:42:06;4.53;;;2.53;;
7213;SDS011;3648;50.614;13.830;2023-07-29T04:44:33;2.97;;;2.17;;
7213;SDS011;3648;50.614;13.830;2023-07-29T04:47:00;2.63;;;2.10;;
7213;SDS011;3648;50.614;13.830;2023-07-29T04:49:28;2.57;;;2.37;;
7213;SDS011;3648;50.614;13.830;2023-07-29T04:51:55;2.13;;;1.93;;
7213;SDS011;3648;50.614;13.830;2023-07-29T04:54:22;2.47;;;2.27;;
7213;SDS011;3648;50.614;13.830;2023-07-29T04:56:49;3.60;;;2.20;;
7213;SDS011;3648;50.614;13.830;2023-07-29T04:59:16;2.63;;;1.90;;
7213;SDS011;3648;50.614;13.830;2023-07-29T05:01:43;2.10;;;1.90;;
7213;SDS011;3648;50.614;13.830;2023-07-29T05:04:10;1.57;;;1.47;;
7213;SDS011;3648;50.614;13.830;2023-07-29T05:06:39;3.20;;;1.70;;
7213;SDS011;3648;50.614;13.830;2023-07-29T05:09:12;1.90;;;1.80;;
7213;SDS011;3648;50.614;13.830;2023-07-29T05:11:39;1.87;;;1.43;;
7213;SDS011;3648;50.614;13.830;2023-07-29T05:14:07;1.47;;;1.37;;
7213;SDS011;3648;50.614;13.830;2023-07-29T05:16:34;1.27;;;1.17;;
7213;SDS011;3648;50.614;13.830;2023-07-29T05:19:01;1.93;;;1.60;;
7213;SDS011;3648;50.614;13.830;2023-07-29T05:21:29;1.50;;;1.40;;
7213;SDS011;3648;50.614;13.830;2023-07-29T05:23:57;1.30;;;1.20;;
7213;SDS011;3648;50.614;13.830;2023-07-29T05:26:24;2.50;;;1.50;;
7213;SDS011;3648;50.614;13.830;2023-07-29T05:28:51;2.80;;;1.30;;
7213;SDS011;3648;50.614;13.830;2023-07-29T05:31:18;1.30;;;1.20;;
7213;SDS011;3648;50.614;13.830;2023-07-29T05:33:45;1.30;;;1.20;;
7213;SDS011;3648;50.614;13.830;2023-07-29T05:36:12;1.47;;;1.37;;
7213;SDS011;3648;50.614;13.830;2023-07-29T05:38:40;1.57;;;1.47;;
7213;SDS011;3648;50.614;13.830;2023-07-29T05:41:09;2.03;;;1.50;;
7213;SDS011;3648;50.614;13.830;2023-07-29T05:43:35;2.20;;;1.50;;
7213;SDS011;3648;50.614;13.830;2023-07-29T05:46:03;2.10;;;1.90;;
7213;SDS011;3648;50.614;13.830;2023-07-29T05:48:30;2.20;;;2.00;;
7213;SDS011;3648;50.614;13.830;2023-07-29T05:50:58;2.27;;;2.07;;
7213;SDS011;3648;50.614;13.830;2023-07-29T05:53:25;2.37;;;1.77;;
7213;SDS011;3648;50.614;13.830;2023-07-29T05:55:51;2.97;;;2.10;;
7213;SDS011;3648;50.614;13.830;2023-07-29T05:58:20;2.40;;;1.83;;
7213;SDS011;3648;50.614;13.830;2023-07-29T06:00:47;2.10;;;2.00;;
7213;SDS011;3648;50.614;13.830;2023-07-29T06:03:14;2.43;;;2.00;;
7213;SDS011;3648;50.614;13.830;2023-07-29T06:05:41;3.57;;;2.17;;
7213;SDS011;3648;50.614;13.830;2023-07-29T06:08:09;5.73;;;2.53;;
7213;SDS011;3648;50.614;13.830;2023-07-29T06:10:36;2.43;;;2.13;;
7213;SDS011;3648;50.614;13.830;2023-07-29T06:13:03;2.93;;;2.37;;
7213;SDS011;3648;50.614;13.830;2023-07-29T06:15:32;2.53;;;2.33;;
7213;SDS011;3648;50.614;13.830;2023-07-29T06:17:59;4.00;;;2.60;;
7213;SDS011;3648;50.614;13.830;2023-07-29T06:20:26;3.70;;;2.87;;
7213;SDS011;3648;50.614;13.830;2023-07-29T06:22:53;2.90;;;2.33;;
7213;SDS011;3648;50.614;13.830;2023-07-29T06:25:20;2.70;;;2.50;;
7213;SDS011;3648;50.614;13.830;2023-07-29T06:27:47;3.90;;;2.37;;
7213;SDS011;3648;50.614;13.830;2023-07-29T06:30:14;2.60;;;2.40;;
7213;SDS011;3648;50.614;13.830;2023-07-29T06:32:43;3.70;;;2.50;;
7213;SDS011;3648;50.614;13.830;2023-07-29T06:35:10;3.07;;;2.50;;
7213;SDS011;3648;50.614;13.830;2023-07-29T06:37:37;3.53;;;2.80;;
7213;SDS011;3648;50.614;13.830;2023-07-29T06:40:05;2.87;;;2.30;;
7213;SDS011;3648;50.614;13.830;2023-07-29T06:42:32;4.13;;;2.50;;
7213;SDS011;3648;50.614;13.830;2023-07-29T06:44:59;2.50;;;2.13;;
7213;SDS011;3648;50.614;13.830;2023-07-29T06:47:26;4.20;;;2.40;;
7213;SDS011;3648;50.614;13.830;2023-07-29T06:49:55;4.40;;;2.27;;
7213;SDS011;3648;50.614;13.830;2023-07-29T06:52:22;2.77;;;2.57;;
7213;SDS011;3648;50.614;13.830;2023-07-29T06:54:49;4.83;;;2.13;;
7213;SDS011;3648;50.614;13.830;2023-07-29T06:57:16;5.23;;;2.67;;
7213;SDS011;3648;50.614;13.830;2023-07-29T06:59:43;4.40;;;2.30;;
7213;SDS011;3648;50.614;13.830;2023-07-29T07:02:10;2.70;;;2.50;;
7213;SDS011;3648;50.614;13.830;2023-07-29T07:04:37;4.10;;;2.20;;
7213;SDS011;3648;50.614;13.830;2023-07-29T07:07:05;3.00;;;2.13;;
7213;SDS011;3648;50.614;13.830;2023-07-29T07:09:32;3.67;;;2.50;;
7213;SDS011;3648;50.614;13.830;2023-07-29T07:11:59;2.30;;;2.17;;
7213;SDS011;3648;50.614;13.830;2023-07-29T07:14:26;2.93;;;2.33;;
7213;SDS011;3648;50.614;13.830;2023-07-29T07:16:53;3.67;;;2.27;;
7213;SDS011;3648;50.614;13.830;2023-07-29T07:19:20;2.60;;;2.40;;
7213;SDS011;3648;50.614;13.830;2023-07-29T07:21:47;2.67;;;1.80;;
7213;SDS011;3648;50.614;13.830;2023-07-29T07:24:15;2.00;;;1.80;;
7213;SDS011;3648;50.614;13.830;2023-07-29T07:26:42;5.03;;;2.47;;
7213;SDS011;3648;50.614;13.830;2023-07-29T07:29:09;2.23;;;2.00;;
7213;SDS011;3648;50.614;13.830;2023-07-29T07:31:36;2.50;;;2.10;;
7213;SDS011;3648;50.614;13.830;2023-07-29T07:34:03;4.97;;;2.60;;
7213;SDS011;3648;50.614;13.830;2023-07-29T07:36:30;2.90;;;2.60;;
7213;SDS011;3648;50.614;13.830;2023-07-29T07:38:57;2.63;;;2.20;;
7213;SDS011;3648;50.614;13.830;2023-07-29T07:41:26;3.10;;;1.90;;
7213;SDS011;3648;50.614;13.830;2023-07-29T07:43:53;3.47;;;2.83;;
7213;SDS011;3648;50.614;13.830;2023-07-29T07:46:20;3.53;;;2.57;;
7213;SDS011;3648;50.614;13.830;2023-07-29T07:48:46;2.53;;;2.33;;
7213;SDS011;3648;50.614;13.830;2023-07-29T07:51:14;3.23;;;2.53;;
7213;SDS011;3648;50.614;13.830;2023-07-29T07:53:41;3.30;;;2.60;;
7213;SDS011;3648;50.614;13.830;2023-07-29T07:56:08;2.63;;;2.43;;
7213;SDS011;3648;50.614;13.830;2023-07-29T07:58:36;3.47;;;2.47;;
7213;SDS011;3648;50.614;13.830;2023-07-29T08:01:04;2.77;;;2.57;;
7213;SDS011;3648;50.614;13.830;2023-07-29T08:03:31;3.67;;;2.70;;
7213;SDS011;3648;50.614;13.830;2023-07-29T08:05:59;3.17;;;2.53;;
7213;SDS011;3648;50.614;13.830;2023-07-29T08:08:26;2.70;;;2.47;;
7213;SDS011;3648;50.614;13.830;2023-07-29T08:10:53;5.50;;;2.47;;
7213;SDS011;3648;50.614;13.830;2023-07-29T08:13:22;2.87;;;2.67;;
7213;SDS011;3648;50.614;13.830;2023-07-29T08:15:50;3.47;;;2.47;;
7213;SDS011;3648;50.614;13.830;2023-07-29T08:18:18;3.03;;;2.30;;
7213;SDS011;3648;50.614;13.830;2023-07-29T08:20:52;2.50;;;2.30;;
7213;SDS011;3648;50.614;13.830;2023-07-29T08:23:20;2.30;;;2.10;;
7213;SDS011;3648;50.614;13.830;2023-07-29T08:25:52;1.90;;;1.80;;
7213;SDS011;3648;50.614;13.830;2023-07-29T08:28:21;2.27;;;2.07;;
7213;SDS011;3648;50.614;13.830;2023-07-29T08:30:48;1.70;;;1.60;;
7213;SDS011;3648;50.614;13.830;2023-07-29T08:33:17;1.70;;;1.60;;
7213;SDS011;3648;50.614;13.830;2023-07-29T08:35:44;1.70;;;1.60;;
7213;SDS011;3648;50.614;13.830;2023-07-29T08:38:11;1.83;;;1.60;;
7213;SDS011;3648;50.614;13.830;2023-07-29T08:40:40;1.57;;;1.47;;
7213;SDS011;3648;50.614;13.830;2023-07-29T08:43:11;1.57;;;1.47;;
7213;SDS011;3648;50.614;13.830;2023-07-29T08:45:40;1.50;;;1.40;;
7213;SDS011;3648;50.614;13.830;2023-07-29T08:48:10;1.63;;;1.43;;
7213;SDS011;3648;50.614;13.830;2023-07-29T08:50:40;1.57;;;1.30;;
7213;SDS011;3648;50.614;13.830;2023-07-29T08:53:10;2.03;;;1.40;;
7213;SDS011;3648;50.614;13.830;2023-07-29T08:55:37;2.07;;;1.30;;
7213;SDS011;3648;50.614;13.830;2023-07-29T08:58:05;1.57;;;1.40;;
7213;SDS011;3648;50.614;13.830;2023-07-29T09:00:33;2.33;;;1.40;;
7213;SDS011;3648;50.614;13.830;2023-07-29T09:03:01;1.53;;;1.23;;
7213;SDS011;3648;50.614;13.830;2023-07-29T09:05:32;2.50;;;1.40;;
7213;SDS011;3648;50.614;13.830;2023-07-29T09:08:01;1.47;;;1.30;;
7213;SDS011;3648;50.614;13.830;2023-07-29T09:10:29;1.40;;;1.30;;
7213;SDS011;3648;50.614;13.830;2023-07-29T09:13:00;2.27;;;1.30;;
7213;SDS011;3648;50.614;13.830;2023-07-29T09:15:28;1.37;;;1.27;;
7213;SDS011;3648;50.614;13.830;2023-07-29T09:17:56;1.57;;;1.20;;
7213;SDS011;3648;50.614;13.830;2023-07-29T09:20:24;1.13;;;1.03;;
7213;SDS011;3648;50.614;13.830;2023-07-29T09:22:52;1.10;;;1.00;;
7213;SDS011;3648;50.614;13.830;2023-07-29T09:25:23;1.40;;;1.20;;
7213;SDS011;3648;50.614;13.830;2023-07-29T09:27:51;2.20;;;1.30;;
7213;SDS011;3648;50.614;13.830;2023-07-29T09:30:18;1.17;;;1.07;;
7213;SDS011;3648;50.614;13.830;2023-07-29T09:32:45;1.37;;;1.23;;
7213;SDS011;3648;50.614;13.830;2023-07-29T09:35:12;1.67;;;1.00;;
7213;SDS011;3648;50.614;13.830;2023-07-29T09:37:39;1.50;;;0.90;;
7213;SDS011;3648;50.614;13.830;2023-07-29T09:40:07;0.77;;;0.77;;
7213;SDS011;3648;50.614;13.830;2023-07-29T09:42:48;1.20;;;0.90;;
7213;SDS011;3648;50.614;13.830;2023-07-29T09:45:20;1.00;;;0.90;;
7213;SDS011;3648;50.614;13.830;2023-07-29T09:47:48;1.40;;;1.23;;
7213;SDS011;3648;50.614;13.830;2023-07-29T09:50:15;0.83;;;0.83;;
7213;SDS011;3648;50.614;13.830;2023-07-29T09:52:43;1.40;;;0.83;;
7213;SDS011;3648;50.614;13.830;2023-07-29T09:55:11;1.17;;;0.90;;
7213;SDS011;3648;50.614;13.830;2023-07-29T09:57:39;0.90;;;0.90;;
7213;SDS011;3648;50.614;13.830;2023-07-29T10:00:10;1.70;;;0.90;;
7213;SDS011;3648;50.614;13.830;2023-07-29T10:02:38;0.93;;;0.80;;
7213;SDS011;3648;50.614;13.830;2023-07-29T10:05:07;0.70;;;0.70;;
7213;SDS011;3648;50.614;13.830;2023-07-29T10:07:36;1.27;;;0.90;;
7213;SDS011;3648;50.614;13.830;2023-07-29T10:10:04;1.17;;;1.07;;
7213;SDS011;3648;50.614;13.830;2023-07-29T10:12:33;1.50;;;1.00;;
7213;SDS011;3648;50.614;13.830;2023-07-29T10:15:02;1.00;;;0.90;;
7213;SDS011;3648;50.614;13.830;2023-07-29T10:17:31;2.43;;;1.07;;
7213;SDS011;3648;50.614;13.830;2023-07-29T10:20:01;2.17;;;1.20;;
7213;SDS011;3648;50.614;13.830;2023-07-29T10:22:32;1.17;;;0.80;;
7213;SDS011;3648;50.614;13.830;2023-07-29T10:25:03;1.00;;;0.90;;
7213;SDS011;3648;50.614;13.830;2023-07-29T10:27:35;1.60;;;1.03;;
7213;SDS011;3648;50.614;13.830;2023-07-29T10:30:08;1.83;;;0.90;;
7213;SDS011;3648;50.614;13.830;2023-07-29T10:32:39;2.07;;;0.90;;
7213;SDS011;3648;50.614;13.830;2023-07-29T10:35:08;2.10;;;0.97;;
7213;SDS011;3648;50.614;13.830;2023-07-29T10:37:36;0.87;;;0.70;;
7213;SDS011;3648;50.614;13.830;2023-07-29T10:40:05;0.80;;;0.80;;
7213;SDS011;3648;50.614;13.830;2023-07-29T10:42:34;2.50;;;1.07;;
7213;SDS011;3648;50.614;13.830;2023-07-29T10:45:16;0.87;;;0.80;;
7213;SDS011;3648;50.614;13.830;2023-07-29T10:47:47;1.37;;;1.00;;
7213;SDS011;3648;50.614;13.830;2023-07-29T10:50:17;0.80;;;0.80;;
7213;SDS011;3648;50.614;13.830;2023-07-29T10:52:49;1.03;;;0.93;;
7213;SDS011;3648;50.614;13.830;2023-07-29T10:55:25;0.77;;;0.77;;
7213;SDS011;3648;50.614;13.830;2023-07-29T10:58:08;1.47;;;0.87;;
7213;SDS011;3648;50.614;13.830;2023-07-29T11:00:38;3.47;;;1.17;;
7213;SDS011;3648;50.614;13.830;2023-07-29T11:03:09;1.00;;;0.73;;
7213;SDS011;3648;50.614;13.830;2023-07-29T11:05:43;3.03;;;1.20;;
7213;SDS011;3648;50.614;13.830;2023-07-29T11:08:16;0.80;;;0.80;;
7213;SDS011;3648;50.614;13.830;2023-07-29T11:13:38;1.17;;;0.70;;
7213;SDS011;3648;50.614;13.830;2023-07-29T11:16:05;0.70;;;0.60;;
7213;SDS011;3648;50.614;13.830;2023-07-29T11:18:38;2.77;;;0.77;;
7213;SDS011;3648;50.614;13.830;2023-07-29T11:21:06;1.10;;;0.80;;
7213;SDS011;3648;50.614;13.830;2023-07-29T11:23:34;0.80;;;0.80;;
7213;SDS011;3648;50.614;13.830;2023-07-29T11:26:03;1.80;;;1.30;;
7213;SDS011;3648;50.614;13.830;2023-07-29T11:28:31;0.97;;;0.87;;
7213;SDS011;3648;50.614;13.830;2023-07-29T11:31:03;1.97;;;1.43;;
7213;SDS011;3648;50.614;13.830;2023-07-29T11:33:31;0.97;;;0.87;;
7213;SDS011;3648;50.614;13.830;2023-07-29T11:35:59;1.17;;;0.80;;
7213;SDS011;3648;50.614;13.830;2023-07-29T11:38:26;1.37;;;0.80;;
7213;SDS011;3648;50.614;13.830;2023-07-29T11:40:53;2.30;;;0.90;;
7213;SDS011;3648;50.614;13.830;2023-07-29T11:43:22;1.50;;;0.80;;
7213;SDS011;3648;50.614;13.830;2023-07-29T11:45:49;1.23;;;1.13;;
7213;SDS011;3648;50.614;13.830;2023-07-29T11:48:17;2.50;;;1.00;;
7213;SDS011;3648;50.614;13.830;2023-07-29T11:50:44;1.43;;;0.90;;
7213;SDS011;3648;50.614;13.830;2023-07-29T11:53:13;0.90;;;0.80;;
7213;SDS011;3648;50.614;13.830;2023-07-29T11:55:41;1.90;;;0.80;;
7213;SDS011;3648;50.614;13.830;2023-07-29T11:58:08;0.83;;;0.63;;
7213;SDS011;3648;50.614;13.830;2023-07-29T12:00:37;0.60;;;0.60;;
7213;SDS011;3648;50.614;13.830;2023-07-29T12:03:04;1.17;;;0.80;;
7213;SDS011;3648;50.614;13.830;2023-07-29T12:05:33;1.10;;;0.90;;
7213;SDS011;3648;50.614;13.830;2023-07-29T12:08:00;0.80;;;0.80;;
7213;SDS011;3648;50.614;13.830;2023-07-29T12:10:29;1.20;;;1.00;;
7213;SDS011;3648;50.614;13.830;2023-07-29T12:12:57;1.57;;;1.10;;
7213;SDS011;3648;50.614;13.830;2023-07-29T12:15:24;2.43;;;0.70;;
7213;SDS011;3648;50.614;13.830;2023-07-29T12:17:52;0.90;;;0.73;;
7213;SDS011;3648;50.614;13.830;2023-07-29T12:20:22;0.97;;;0.80;;
7213;SDS011;3648;50.614;13.830;2023-07-29T12:22:54;0.90;;;0.70;;
7213;SDS011;3648;50.614;13.830;2023-07-29T12:25:25;1.27;;;0.90;;
7213;SDS011;3648;50.614;13.830;2023-07-29T12:27:54;1.03;;;0.70;;
7213;SDS011;3648;50.614;13.830;2023-07-29T12:30:21;0.80;;;0.73;;
7213;SDS011;3648;50.614;13.830;2023-07-29T12:32:49;1.37;;;0.77;;
7213;SDS011;3648;50.614;13.830;2023-07-29T12:35:16;1.10;;;1.00;;
7213;SDS011;3648;50.614;13.830;2023-07-29T12:37:43;1.37;;;1.03;;
7213;SDS011;3648;50.614;13.830;2023-07-29T12:40:20;0.80;;;0.80;;
7213;SDS011;3648;50.614;13.830;2023-07-29T12:42:49;1.23;;;0.70;;
7213;SDS011;3648;50.614;13.830;2023-07-29T12:45:18;1.83;;;1.00;;
7213;SDS011;3648;50.614;13.830;2023-07-29T12:47:48;1.20;;;1.10;;
7213;SDS011;3648;50.614;13.830;2023-07-29T12:50:15;1.93;;;1.20;;
7213;SDS011;3648;50.614;13.830;2023-07-29T12:52:42;3.80;;;1.43;;
7213;SDS011;3648;50.614;13.830;2023-07-29T12:55:09;1.50;;;1.40;;
7213;SDS011;3648;50.614;13.830;2023-07-29T12:57:38;1.37;;;1.27;;
7213;SDS011;3648;50.614;13.830;2023-07-29T13:00:08;2.67;;;1.13;;
7213;SDS011;3648;50.614;13.830;2023-07-29T13:02:37;2.47;;;1.20;;
7213;SDS011;3648;50.614;13.830;2023-07-29T13:05:05;2.57;;;1.67;;
7213;SDS011;3648;50.614;13.830;2023-07-29T13:07:34;3.57;;;1.80;;
7213;SDS011;3648;50.614;13.830;2023-07-29T13:10:01;2.20;;;1.60;;
7213;SDS011;3648;50.614;13.830;2023-07-29T13:12:28;2.67;;;1.30;;
7213;SDS011;3648;50.614;13.830;2023-07-29T13:14:55;1.87;;;1.67;;
7213;SDS011;3648;50.614;13.830;2023-07-29T13:17:22;2.23;;;1.40;;
7213;SDS011;3648;50.614;13.830;2023-07-29T13:19:51;1.50;;;1.10;;
7213;SDS011;3648;50.614;13.830;2023-07-29T13:22:19;1.60;;;1.40;;
7213;SDS011;3648;50.614;13.830;2023-07-29T13:24:46;1.20;;;1.10;;
7213;SDS011;3648;50.614;13.830;2023-07-29T13:27:13;4.50;;;1.50;;
7213;SDS011;3648;50.614;13.830;2023-07-29T13:29:40;2.40;;;1.20;;
7213;SDS011;3648;50.614;13.830;2023-07-29T13:32:09;1.93;;;1.30;;
7213;SDS011;3648;50.614;13.830;2023-07-29T13:34:36;1.27;;;0.90;;
7213;SDS011;3648;50.614;13.830;2023-07-29T13:37:06;2.40;;;1.17;;
7213;SDS011;3648;50.614;13.830;2023-07-29T13:39:33;1.30;;;1.20;;
7213;SDS011;3648;50.614;13.830;2023-07-29T13:42:00;1.43;;;1.20;;
7213;SDS011;3648;50.614;13.830;2023-07-29T13:44:27;1.83;;;1.30;;
7213;SDS011;3648;50.614;13.830;2023-07-29T13:46:55;1.53;;;1.33;;
7213;SDS011;3648;50.614;13.830;2023-07-29T13:49:22;1.13;;;1.00;;
7213;SDS011;3648;50.614;13.830;2023-07-29T13:51:49;1.30;;;0.90;;
7213;SDS011;3648;50.614;13.830;2023-07-29T13:54:17;0.80;;;0.70;;
7213;SDS011;3648;50.614;13.830;2023-07-29T13:56:47;1.77;;;1.00;;
7213;SDS011;3648;50.614;13.830;2023-07-29T13:59:14;1.57;;;0.90;;
7213;SDS011;3648;50.614;13.830;2023-07-29T14:01:41;1.80;;;0.90;;
7213;SDS011;3648;50.614;13.830;2023-07-29T14:04:08;1.70;;;0.90;;
7213;SDS011;3648;50.614;13.830;2023-07-29T14:06:35;1.93;;;1.00;;
7213;SDS011;3648;50.614;13.830;2023-07-29T14:09:03;0.97;;;0.87;;
7213;SDS011;3648;50.614;13.830;2023-07-29T14:11:32;1.47;;;0.90;;
7213;SDS011;3648;50.614;13.830;2023-07-29T14:13:59;1.73;;;1.20;;
7213;SDS011;3648;50.614;13.830;2023-07-29T14:16:26;1.03;;;0.93;;
7213;SDS011;3648;50.614;13.830;2023-07-29T14:18:53;1.10;;;1.00;;
7213;SDS011;3648;50.614;13.830;2023-07-29T14:21:20;1.37;;;0.90;;
7213;SDS011;3648;50.614;13.830;2023-07-29T14:23:47;1.03;;;0.83;;
7213;SDS011;3648;50.614;13.830;2023-07-29T14:26:17;3.53;;;1.40;;
7213;SDS011;3648;50.614;13.830;2023-07-29T14:28:48;2.90;;;1.73;;
7213;SDS011;3648;50.614;13.830;2023-07-29T14:31:15;1.50;;;1.30;;
7213;SDS011;3648;50.614;13.830;2023-07-29T14:33:42;1.37;;;0.80;;
7213;SDS011;3648;50.614;13.830;2023-07-29T14:36:10;3.30;;;1.10;;
7213;SDS011;3648;50.614;13.830;2023-07-29T14:38:37;8.40;;;1.47;;
7213;SDS011;3648;50.614;13.830;2023-07-29T14:41:04;6.93;;;1.10;;
7213;SDS011;3648;50.614;13.830;2023-07-29T14:43:31;4.03;;;1.00;;
7213;SDS011;3648;50.614;13.830;2023-07-29T14:46:00;3.70;;;1.40;;
7213;SDS011;3648;50.614;13.830;2023-07-29T14:48:27;4.77;;;1.37;;
7213;SDS011;3648;50.614;13.830;2023-07-29T14:50:55;1.13;;;0.90;;
7213;SDS011;3648;50.614;13.830;2023-07-29T14:53:22;0.97;;;0.77;;
7213;SDS011;3648;50.614;13.830;2023-07-29T14:55:50;9.40;;;1.43;;
7213;SDS011;3648;50.614;13.830;2023-07-29T14:58:17;6.93;;;1.37;;
7213;SDS011;3648;50.614;13.830;2023-07-29T15:00:44;6.00;;;1.27;;
7213;SDS011;3648;50.614;13.830;2023-07-29T15:03:13;1.70;;;1.07;;
7213;SDS011;3648;50.614;13.830;2023-07-29T15:05:40;2.73;;;1.00;;
7213;SDS011;3648;50.614;13.830;2023-07-29T15:08:07;4.20;;;1.00;;